Time;durP1;ratioP1;P1;durP2;ratioP2;P2;SDS_P1;SDS_P2;PMS_P1;PMS_P2;Temp;Humidity;BMP_temperature;BMP_pressure;BME280_temperature;BME280_humidity;BME280_pressure;Samples;Min_cycle;Max_cycle;Signal;HPM_P1;HPM_P2
2022/09/11 00:02:00;;;;;;;3.28;2.40;;;15.50;57.50;;;;;;4913171;29;20224;-35
2022/09/11 00:04:32;;;;;;;2.80;2.10;;;15.50;57.60;;;;;;4898360;29;20207;-35
2022/09/11 00:07:02;;;;;;;3.40;2.33;;;15.50;57.60;;;;;;4919447;29;20218;-34
2022/09/11 00:09:35;;;;;;;3.75;2.10;;;15.50;57.60;;;;;;4912394;29;20208;-35
2022/09/11 00:12:06;;;;;;;4.18;2.25;;;15.50;57.50;;;;;;4913204;29;20231;-36
2022/09/11 00:14:36;;;;;;;4.03;2.00;;;15.50;57.40;;;;;;4913454;29;20215;-34
2022/09/11 00:17:07;;;;;;;2.45;2.03;;;15.60;57.50;;;;;;4912749;29;20718;-35
2022/09/11 00:19:41;;;;;;;3.42;2.13;;;15.60;57.60;;;;;;4913540;29;20279;-34
2022/09/11 00:22:11;;;;;;;3.72;2.25;;;15.60;57.80;;;;;;4912920;29;20267;-35
2022/09/11 00:24:44;;;;;;;2.63;2.28;;;15.60;57.70;;;;;;4912601;29;20668;-35
2022/09/11 00:27:14;;;;;;;3.95;2.38;;;15.70;57.70;;;;;;4912630;29;20224;-35
2022/09/11 00:29:45;;;;;;;3.05;2.25;;;15.60;57.70;;;;;;4913251;29;20200;-38
2022/09/11 00:32:16;;;;;;;3.95;2.17;;;15.60;57.90;;;;;;4912988;29;20203;-35
2022/09/11 00:34:47;;;;;;;5.40;2.70;;;15.70;58.10;;;;;;4912162;29;20227;-35
2022/09/11 00:37:17;;;;;;;4.30;2.70;;;15.70;58.20;;;;;;4913179;29;20298;-35
2022/09/11 00:39:53;;;;;;;2.75;2.17;;;15.70;58.20;;;;;;4912537;29;20223;-40
2022/09/11 00:42:24;;;;;;;4.72;2.40;;;15.70;58.20;;;;;;4913575;29;20200;-35
2022/09/11 00:45:04;;;;;;;4.00;2.40;;;15.70;58.10;;;;;;4913095;29;20844;-35
2022/09/11 00:47:37;;;;;;;3.60;2.20;;;15.70;58.10;;;;;;4912772;29;20216;-35
2022/09/11 00:50:14;;;;;;;3.70;2.22;;;15.70;57.90;;;;;;4913019;29;20205;-35
2022/09/11 00:55:36;;;;;;;2.95;2.13;;;15.80;58.00;;;;;;4914311;29;20276;-35
2022/09/11 00:58:09;;;;;;;3.85;2.35;;;15.70;57.90;;;;;;4899426;29;20284;-37
2022/09/11 01:00:42;;;;;;;4.25;2.30;;;15.80;58.10;;;;;;4896976;29;20237;-51
2022/09/11 01:03:13;;;;;;;4.03;2.97;;;15.80;58.20;;;;;;4897404;29;20198;-52
2022/09/11 01:05:45;;;;;;;5.32;3.08;;;15.80;58.30;;;;;;4909076;29;20913;-53
2022/09/11 01:08:15;;;;;;;5.90;3.30;;;15.80;58.60;;;;;;4896769;29;20569;-53
2022/09/11 01:11:00;;;;;;;3.05;2.63;;;15.80;58.60;;;;;;4897577;29;20545;-54
2022/09/11 01:13:37;;;;;;;7.07;3.15;;;15.80;58.60;;;;;;4878761;29;20576;-56
2022/09/11 01:16:17;;;;;;;5.00;3.33;;;15.80;58.70;;;;;;4897708;29;20224;-44
2022/09/11 01:18:57;;;;;;;5.18;3.38;;;15.90;58.80;;;;;;4915486;29;20206;-48
2022/09/11 01:21:51;;;;;;;5.03;2.90;;;15.90;58.70;;;;;;4915636;29;20215;-55
2022/09/11 01:24:50;;;;;;;6.28;3.40;;;15.90;58.60;;;;;;4915830;29;20196;-48
2022/09/11 01:27:44;;;;;;;5.53;2.90;;;15.90;58.50;;;;;;4916115;29;20243;-50
2022/09/11 01:30:17;;;;;;;5.25;2.85;;;15.90;58.40;;;;;;4912926;29;20211;-55
2022/09/11 01:33:14;;;;;;;3.45;2.63;;;15.90;58.40;;;;;;4915486;29;20196;-51
2022/09/11 01:35:54;;;;;;;5.40;3.47;;;15.90;58.40;;;;;;4914954;29;20232;-44
2022/09/11 01:38:32;;;;;;;4.97;3.15;;;15.90;58.40;;;;;;4899859;29;20197;-44
2022/09/11 01:41:08;;;;;;;5.10;3.45;;;15.90;58.60;;;;;;4896319;29;20704;-47
2022/09/11 01:43:45;;;;;;;5.78;2.90;;;15.90;58.50;;;;;;4886304;29;20196;-49
2022/09/11 01:46:21;;;;;;;4.93;2.72;;;16.00;58.80;;;;;;4895573;29;20224;-41
2022/09/11 01:48:57;;;;;;;4.18;2.75;;;16.00;58.90;;;;;;4905479;29;20259;-39
2022/09/11 01:51:31;;;;;;;4.88;3.15;;;16.00;59.20;;;;;;4912603;29;20681;-48
2022/09/11 01:54:03;;;;;;;4.47;2.90;;;16.00;59.30;;;;;;4921114;23;20239;-36
2022/09/11 01:56:41;;;;;;;6.03;3.75;;;16.00;59.30;;;;;;4922292;29;20956;-36
2022/09/11 01:59:18;;;;;;;4.45;2.97;;;16.10;59.40;;;;;;4896089;29;20264;-40
2022/09/11 02:01:52;;;;;;;3.42;2.80;;;16.10;59.30;;;;;;4896235;29;20220;-36
2022/09/11 02:04:28;;;;;;;4.80;2.72;;;16.10;59.20;;;;;;4895793;29;20211;-44
2022/09/11 02:07:03;;;;;;;12.80;8.07;;;16.10;59.30;;;;;;4897323;29;20280;-56
2022/09/11 02:09:39;;;;;;;7.65;4.95;;;16.10;61.70;;;;;;4895978;29;20208;-57
2022/09/11 02:12:14;;;;;;;4.55;3.15;;;16.10;62.90;;;;;;4896329;29;20216;-38
2022/09/11 02:14:49;;;;;;;2.88;2.05;;;16.10;63.60;;;;;;4896037;29;20781;-38
2022/09/11 02:17:30;;;;;;;2.30;2.10;;;16.20;64.60;;;;;;4895769;29;20553;-47
2022/09/11 02:20:02;;;;;;;2.20;1.80;;;16.20;66.30;;;;;;4895263;29;20288;-38
2022/09/11 02:22:33;;;;;;;1.60;1.40;;;16.20;68.00;;;;;;4895028;29;20241;-49
2022/09/11 02:25:03;;;;;;;2.90;2.40;;;16.20;66.90;;;;;;4908584;29;20948;-58
2022/09/11 02:27:35;;;;;;;12.32;5.60;;;16.20;68.10;;;;;;4905976;29;20221;-49
2022/09/11 02:30:09;;;;;;;4.43;2.88;;;16.30;68.30;;;;;;4895006;29;20213;-67
2022/09/11 02:32:43;;;;;;;2.17;1.52;;;16.30;69.70;;;;;;4895259;29;20205;-51
2022/09/11 02:35:15;;;;;;;2.53;1.55;;;16.30;69.30;;;;;;4895511;29;20212;-38
2022/09/11 02:37:57;;;;;;;3.45;2.30;;;16.30;70.70;;;;;;4895805;29;20299;-53
2022/09/11 02:40:43;;;;;;;6.97;3.92;;;16.30;69.60;;;;;;4876655;29;20566;-56
2022/09/11 02:43:33;;;;;;;2.10;1.70;;;16.40;68.80;;;;;;4888013;29;20240;-37
2022/09/11 02:46:30;;;;;;;1.52;1.08;;;16.40;72.50;;;;;;4875993;29;20350;-41
2022/09/11 02:49:11;;;;;;;1.95;1.33;;;16.40;71.30;;;;;;4894428;29;20550;-38
2022/09/11 02:51:50;;;;;;;2.40;1.75;;;16.40;71.10;;;;;;4895436;29;20212;-37
2022/09/11 02:54:29;;;;;;;2.28;1.70;;;16.40;71.50;;;;;;4915669;23;20230;-44
2022/09/11 02:57:04;;;;;;;2.15;1.98;;;16.40;70.90;;;;;;4897935;29;20217;-40
2022/09/11 02:59:38;;;;;;;1.80;1.60;;;16.40;70.20;;;;;;4875601;29;20201;-51
2022/09/11 03:02:14;;;;;;;1.90;1.70;;;16.50;70.40;;;;;;4875716;29;20220;-39
2022/09/11 03:04:45;;;;;;;1.35;1.25;;;16.40;69.70;;;;;;4875672;29;20212;-42
2022/09/11 03:07:16;;;;;;;1.80;1.58;;;16.40;69.20;;;;;;4876562;29;20252;-52
2022/09/11 03:09:47;;;;;;;3.90;3.50;;;16.50;69.40;;;;;;4876238;29;20477;-52
2022/09/11 03:12:18;;;;;;;8.93;6.75;;;16.50;69.30;;;;;;4876729;29;20205;-61
2022/09/11 03:14:49;;;;;;;6.25;5.65;;;16.50;69.10;;;;;;4878710;29;20194;-62
2022/09/11 03:17:22;;;;;;;2.58;2.38;;;16.50;68.70;;;;;;4879850;29;20250;-61
2022/09/11 03:19:52;;;;;;;1.33;1.23;;;16.50;68.50;;;;;;4895112;29;20231;-59
2022/09/11 03:22:23;;;;;;;1.95;1.80;;;16.50;67.90;;;;;;4893643;29;20216;-57
2022/09/11 03:24:54;;;;;;;3.17;2.88;;;16.50;67.70;;;;;;4894944;29;20223;-37
2022/09/11 03:27:24;;;;;;;3.60;3.30;;;16.50;67.80;;;;;;4894430;29;20237;-36
2022/09/11 03:29:55;;;;;;;3.00;2.80;;;16.40;67.50;;;;;;4895002;29;20201;-39
2022/09/11 03:32:28;;;;;;;3.20;3.00;;;16.40;67.40;;;;;;4893772;29;20636;-40
2022/09/11 03:35:00;;;;;;;2.65;2.45;;;16.40;67.30;;;;;;4894813;29;20204;-43
2022/09/11 03:37:30;;;;;;;2.60;2.40;;;16.40;67.20;;;;;;4894271;29;20219;-50
2022/09/11 03:40:02;;;;;;;2.58;2.38;;;16.40;67.00;;;;;;4879188;29;20217;-46
2022/09/11 03:42:33;;;;;;;3.22;2.92;;;16.40;66.80;;;;;;4875861;29;20647;-46
2022/09/11 03:45:03;;;;;;;3.47;2.35;;;16.40;66.80;;;;;;4876631;29;20202;-52
2022/09/11 03:47:36;;;;;;;2.83;2.25;;;16.40;66.80;;;;;;4875099;29;20221;-48
2022/09/11 03:50:07;;;;;;;2.30;2.10;;;16.40;67.00;;;;;;4874981;29;20209;-49
2022/09/11 03:52:38;;;;;;;2.33;1.80;;;16.40;67.00;;;;;;4875658;29;20193;-51
2022/09/11 03:55:09;;;;;;;1.83;1.60;;;16.40;67.00;;;;;;4915973;23;20317;-37
2022/09/11 03:57:41;;;;;;;1.17;1.08;;;16.40;67.00;;;;;;4891452;29;20213;-37
2022/09/11 04:00:12;;;;;;;1.63;1.30;;;16.40;67.30;;;;;;4875500;29;20670;-39
2022/09/11 04:02:45;;;;;;;1.35;0.80;;;16.40;66.90;;;;;;4875905;29;20217;-37
2022/09/11 04:05:15;;;;;;;1.45;1.10;;;16.40;66.70;;;;;;4875335;29;20213;-39
2022/09/11 04:07:46;;;;;;;1.23;0.90;;;16.40;66.70;;;;;;4876229;29;20221;-44
2022/09/11 04:10:17;;;;;;;1.90;1.70;;;16.40;66.80;;;;;;4875839;29;20201;-47
2022/09/11 04:12:47;;;;;;;2.15;1.30;;;16.40;66.80;;;;;;4876163;29;20205;-42
2022/09/11 04:15:18;;;;;;;1.23;1.13;;;16.40;66.70;;;;;;4876021;29;20654;-42
2022/09/11 04:17:51;;;;;;;1.80;1.30;;;16.40;66.60;;;;;;4875300;29;20200;-51
2022/09/11 04:20:21;;;;;;;1.10;0.95;;;16.40;66.50;;;;;;4876047;29;20224;-39
2022/09/11 04:22:52;;;;;;;2.20;1.00;;;16.30;66.40;;;;;;4875296;29;20217;-46
2022/09/11 04:25:23;;;;;;;0.50;0.50;;;16.40;66.40;;;;;;4874932;29;20263;-44
2022/09/11 04:27:53;;;;;;;0.63;0.60;;;16.40;66.70;;;;;;4876669;29;20197;-42
2022/09/11 04:30:24;;;;;;;0.93;0.65;;;16.40;66.90;;;;;;4878391;29;20201;-47
2022/09/11 04:32:57;;;;;;;1.25;0.95;;;16.40;67.00;;;;;;4878260;29;20217;-38
2022/09/11 04:35:28;;;;;;;1.30;0.90;;;16.40;67.10;;;;;;4879393;29;20194;-45
2022/09/11 04:37:59;;;;;;;1.48;1.10;;;16.40;66.90;;;;;;4879219;29;20202;-38
2022/09/11 04:40:30;;;;;;;1.83;1.50;;;16.50;66.70;;;;;;4879448;29;20768;-36
2022/09/11 04:43:00;;;;;;;2.17;1.48;;;16.40;66.30;;;;;;4879754;29;20225;-35
2022/09/11 04:45:32;;;;;;;1.10;1.00;;;16.40;66.20;;;;;;4879189;29;20206;-35
2022/09/11 04:48:05;;;;;;;1.60;1.20;;;16.40;65.90;;;;;;4881106;29;20201;-35
2022/09/11 04:50:36;;;;;;;2.10;1.58;;;16.50;65.80;;;;;;4878405;29;20212;-41
2022/09/11 04:53:08;;;;;;;1.50;1.40;;;16.50;65.80;;;;;;4879400;29;20212;-51
2022/09/11 04:55:38;;;;;;;2.40;1.95;;;16.40;65.70;;;;;;4878905;29;20563;-36
2022/09/11 04:58:09;;;;;;;2.00;1.80;;;16.50;65.70;;;;;;4878916;29;20568;-36
2022/09/11 05:00:40;;;;;;;2.75;2.40;;;16.40;65.70;;;;;;4879012;29;20201;-42
2022/09/11 05:03:12;;;;;;;3.53;3.13;;;16.40;65.70;;;;;;4877983;29;20229;-36
2022/09/11 05:05:43;;;;;;;5.35;4.85;;;16.30;65.70;;;;;;4878780;29;20217;-36
2022/09/11 05:08:13;;;;;;;4.78;4.10;;;16.30;65.90;;;;;;4878029;29;20197;-37
2022/09/11 05:10:45;;;;;;;5.60;4.55;;;16.30;65.90;;;;;;4880096;29;20198;-36
2022/09/11 05:13:15;;;;;;;5.75;4.70;;;16.30;66.00;;;;;;4883251;29;20207;-36
2022/09/11 05:15:46;;;;;;;3.90;3.47;;;16.30;66.10;;;;;;4896273;29;20701;-36
2022/09/11 05:18:19;;;;;;;3.10;2.65;;;16.30;66.10;;;;;;4896577;29;20697;-39
2022/09/11 05:20:49;;;;;;;2.85;2.22;;;16.30;66.00;;;;;;4897821;29;20201;-39
2022/09/11 05:23:20;;;;;;;2.75;2.45;;;16.30;65.90;;;;;;4896664;29;20225;-40
2022/09/11 05:25:51;;;;;;;4.57;4.18;;;16.30;65.90;;;;;;4897701;29;20232;-46
2022/09/11 05:28:22;;;;;;;5.20;4.70;;;16.30;65.90;;;;;;4896646;29;20197;-46
2022/09/11 05:30:52;;;;;;;8.35;7.40;;;16.20;65.80;;;;;;4896715;29;20557;-43
2022/09/11 05:33:25;;;;;;;11.80;8.20;;;16.20;65.80;;;;;;4895228;29;20197;-42
2022/09/11 05:35:57;;;;;;;9.02;7.75;;;16.20;65.90;;;;;;4896179;29;20232;-44
2022/09/11 05:38:28;;;;;;;20.75;17.80;;;16.20;65.90;;;;;;4891955;29;20194;-41
2022/09/11 05:40:59;;;;;;;44.72;35.88;;;16.20;65.90;;;;;;4877069;29;20198;-40
2022/09/11 05:43:29;;;;;;;44.50;35.08;;;16.10;66.60;;;;;;4877916;29;20217;-42
2022/09/11 05:46:01;;;;;;;28.05;23.17;;;16.10;65.80;;;;;;4876591;29;20222;-41
2022/09/11 05:48:35;;;;;;;23.33;19.60;;;16.10;65.70;;;;;;4875787;29;20194;-44
2022/09/11 05:51:08;;;;;;;21.08;17.52;;;16.00;65.60;;;;;;4877533;29;20646;-40
2022/09/11 05:53:39;;;;;;;19.10;16.30;;;16.00;65.50;;;;;;4877269;29;20731;-36
2022/09/11 05:56:11;;;;;;;16.60;14.32;;;16.00;65.40;;;;;;4877607;29;20231;-36
2022/09/11 05:58:42;;;;;;;15.65;13.50;;;16.00;65.30;;;;;;4876559;29;20194;-43
2022/09/11 06:01:14;;;;;;;12.90;11.50;;;15.90;65.10;;;;;;4876994;29;20265;-38
2022/09/11 06:03:48;;;;;;;14.73;11.73;;;15.90;65.00;;;;;;4870466;29;20225;-36
2022/09/11 06:06:20;;;;;;;12.40;10.90;;;15.80;64.90;;;;;;4892777;29;20227;-36
2022/09/11 06:08:51;;;;;;;11.73;10.52;;;15.80;65.00;;;;;;4889331;29;20198;-36
2022/09/11 06:11:23;;;;;;;12.65;11.02;;;15.80;65.10;;;;;;4878099;29;20197;-36
2022/09/11 06:13:53;;;;;;;12.10;10.57;;;15.80;65.00;;;;;;4877222;29;20705;-36
2022/09/11 06:16:26;;;;;;;12.40;11.00;;;15.80;65.00;;;;;;4877310;29;20586;-37
2022/09/11 06:18:58;;;;;;;12.02;10.82;;;15.80;65.00;;;;;;4876677;29;20654;-40
2022/09/11 06:21:30;;;;;;;11.50;10.30;;;15.80;65.00;;;;;;4876573;29;20209;-36
2022/09/11 06:24:00;;;;;;;12.10;10.77;;;15.80;65.00;;;;;;4876988;29;20253;-36
2022/09/11 06:26:31;;;;;;;11.43;10.23;;;15.90;64.90;;;;;;4875965;29;20228;-36
2022/09/11 06:29:02;;;;;;;11.90;10.70;;;15.90;64.90;;;;;;4877644;29;20892;-36
2022/09/11 06:31:33;;;;;;;11.70;10.50;;;15.90;64.80;;;;;;4877409;29;20206;-38
2022/09/11 06:34:05;;;;;;;13.45;10.68;;;15.90;64.80;;;;;;4876630;29;20194;-37
2022/09/11 06:36:36;;;;;;;11.35;9.98;;;15.90;64.70;;;;;;4876285;29;20236;-36
2022/09/11 06:39:07;;;;;;;11.65;10.13;;;15.90;64.50;;;;;;4876831;29;20682;-36
2022/09/11 06:41:38;;;;;;;11.80;10.52;;;16.00;64.50;;;;;;4877310;29;20577;-37
2022/09/11 06:44:08;;;;;;;12.60;10.45;;;16.00;64.40;;;;;;4876725;29;20201;-36
2022/09/11 06:46:39;;;;;;;10.98;9.85;;;16.00;64.30;;;;;;4876879;29;20229;-37
2022/09/11 06:49:11;;;;;;;11.13;9.90;;;16.00;64.30;;;;;;4876298;29;20194;-35
2022/09/11 06:51:42;;;;;;;10.55;9.45;;;16.00;64.30;;;;;;4876924;29;20708;-36
2022/09/11 06:54:13;;;;;;;10.70;9.70;;;16.00;64.20;;;;;;4876444;29;20213;-36
2022/09/11 06:56:44;;;;;;;11.13;9.98;;;16.00;64.20;;;;;;4876811;29;20221;-40
2022/09/11 06:59:14;;;;;;;11.18;9.75;;;16.00;64.00;;;;;;4875935;29;20197;-36
2022/09/11 07:01:45;;;;;;;10.85;9.65;;;16.00;64.00;;;;;;4876947;29;20198;-36
2022/09/11 07:04:18;;;;;;;11.18;10.00;;;16.00;63.90;;;;;;4876049;29;20201;-36
2022/09/11 07:06:48;;;;;;;10.27;9.20;;;16.00;63.90;;;;;;4876436;29;20221;-36
2022/09/11 07:09:20;;;;;;;10.15;8.77;;;16.00;63.80;;;;;;4876049;29;20574;-36
2022/09/11 07:11:51;;;;;;;9.75;8.70;;;16.00;63.80;;;;;;4876232;29;20219;-39
2022/09/11 07:14:22;;;;;;;9.52;8.30;;;16.00;63.80;;;;;;4879147;29;20248;-36
2022/09/11 07:16:54;;;;;;;15.25;10.63;;;16.00;63.80;;;;;;4875938;29;20221;-35
2022/09/11 07:19:27;;;;;;;11.98;9.63;;;16.00;63.90;;;;;;4885021;29;20737;-36
2022/09/11 07:21:57;;;;;;;11.70;9.20;;;16.00;63.70;;;;;;4895804;29;20204;-36
2022/09/11 07:24:28;;;;;;;10.55;9.15;;;16.00;63.70;;;;;;4894921;29;20535;-36
2022/09/11 07:26:59;;;;;;;10.63;9.52;;;16.00;63.60;;;;;;4895174;29;20232;-48
2022/09/11 07:29:30;;;;;;;12.10;8.55;;;16.00;63.50;;;;;;4895766;29;20205;-36
2022/09/11 07:32:01;;;;;;;11.23;8.55;;;16.00;63.40;;;;;;4895453;29;20240;-36
2022/09/11 07:34:33;;;;;;;9.80;8.77;;;16.00;63.30;;;;;;4894479;29;20593;-36
2022/09/11 07:37:04;;;;;;;9.27;8.35;;;16.00;63.20;;;;;;4894742;29;20235;-36
2022/09/11 07:39:34;;;;;;;10.75;8.40;;;16.00;63.20;;;;;;4882619;29;20681;-36
2022/09/11 07:42:06;;;;;;;10.13;8.60;;;16.00;63.10;;;;;;4877104;29;20208;-36
2022/09/11 07:44:36;;;;;;;10.20;8.48;;;16.00;63.10;;;;;;4876656;29;20274;-37
2022/09/11 07:47:07;;;;;;;8.48;7.53;;;15.90;63.00;;;;;;4876466;29;20228;-36
2022/09/11 07:49:40;;;;;;;9.32;8.40;;;15.90;62.90;;;;;;4875763;29;20213;-35
2022/09/11 07:52:11;;;;;;;10.15;8.80;;;15.90;62.90;;;;;;4875854;29;20206;-36
2022/09/11 07:54:42;;;;;;;9.10;8.18;;;15.90;62.90;;;;;;4876118;29;20205;-36
2022/09/11 07:57:12;;;;;;;11.32;8.70;;;15.90;62.90;;;;;;4875931;29;20221;-36
2022/09/11 07:59:43;;;;;;;8.90;8.00;;;15.90;62.90;;;;;;4876213;29;20201;-36
2022/09/11 08:02:14;;;;;;;11.68;9.40;;;15.90;62.90;;;;;;4878704;29;20215;-35
2022/09/11 08:04:46;;;;;;;9.80;8.77;;;15.90;62.80;;;;;;4880426;29;20201;-35
2022/09/11 08:07:17;;;;;;;9.43;8.30;;;15.90;62.70;;;;;;4897401;29;20224;-36
2022/09/11 08:09:48;;;;;;;9.65;8.30;;;15.90;62.70;;;;;;4884327;29;20201;-35
2022/09/11 08:12:18;;;;;;;9.25;8.25;;;15.80;62.60;;;;;;4878951;29;20205;-35
2022/09/11 08:14:49;;;;;;;9.80;8.32;;;15.80;62.60;;;;;;4879032;29;20228;-35
2022/09/11 08:17:19;;;;;;;10.05;8.85;;;15.80;62.50;;;;;;4879045;29;20224;-36
2022/09/11 08:19:52;;;;;;;9.23;8.32;;;15.80;62.60;;;;;;4879189;29;20210;-37
2022/09/11 08:22:23;;;;;;;9.18;8.20;;;15.80;62.50;;;;;;4890599;29;20268;-37
2022/09/11 08:24:53;;;;;;;10.57;9.13;;;15.70;62.50;;;;;;4897785;29;20572;-36
2022/09/11 08:27:24;;;;;;;9.15;8.23;;;15.70;62.50;;;;;;4897555;29;20719;-37
2022/09/11 08:29:54;;;;;;;8.68;7.80;;;15.70;62.50;;;;;;4897405;29;20648;-36
2022/09/11 08:32:25;;;;;;;10.50;8.50;;;15.70;62.40;;;;;;4897126;29;20653;-38
2022/09/11 08:34:58;;;;;;;11.05;8.68;;;15.70;62.40;;;;;;4897379;29;20216;-37
2022/09/11 08:37:28;;;;;;;9.75;8.10;;;15.70;62.40;;;;;;4896703;29;20221;-36
2022/09/11 08:39:59;;;;;;;9.52;8.50;;;15.70;62.20;;;;;;4881544;29;20600;-36
2022/09/11 08:42:30;;;;;;;9.30;8.05;;;15.70;62.20;;;;;;4878523;29;20205;-36
2022/09/11 08:45:02;;;;;;;9.27;8.05;;;15.70;62.20;;;;;;4878841;29;20201;-35
2022/09/11 08:47:37;;;;;;;8.73;7.20;;;15.60;62.20;;;;;;4878606;29;20229;-35
2022/09/11 08:50:17;;;;;;;9.32;8.40;;;15.60;62.10;;;;;;4878566;29;20205;-35
2022/09/11 08:52:49;;;;;;;8.85;7.80;;;15.60;62.10;;;;;;4892171;29;20213;-37
2022/09/11 08:55:25;;;;;;;8.82;7.93;;;15.60;62.10;;;;;;4897706;29;20644;-39
2022/09/11 08:58:00;;;;;;;8.57;7.65;;;15.60;62.20;;;;;;4897552;29;20204;-36
2022/09/11 09:00:39;;;;;;;8.90;8.07;;;15.50;62.10;;;;;;4897016;29;20235;-36
2022/09/11 09:03:32;;;;;;;9.52;7.85;;;15.50;62.10;;;;;;4896970;29;20225;-36
2022/09/11 09:06:21;;;;;;;8.45;7.55;;;15.50;62.00;;;;;;4895912;29;20243;-36
2022/09/11 09:08:59;;;;;;;8.68;7.68;;;15.50;61.90;;;;;;4890416;29;20244;-38
2022/09/11 09:11:37;;;;;;;8.00;7.20;;;15.50;61.90;;;;;;4878399;29;20221;-36
2022/09/11 09:14:23;;;;;;;8.68;7.80;;;15.50;61.80;;;;;;4877393;29;20245;-35
2022/09/11 09:16:58;;;;;;;8.68;7.35;;;15.50;61.80;;;;;;4878476;29;20307;-36
2022/09/11 09:19:34;;;;;;;7.10;6.40;;;15.50;61.80;;;;;;4880231;29;20662;-35
2022/09/11 09:22:16;;;;;;;7.72;7.00;;;15.50;61.90;;;;;;4884172;29;20200;-35
2022/09/11 09:24:50;;;;;;;9.27;7.88;;;15.40;61.90;;;;;;4896888;29;20232;-37
2022/09/11 09:27:27;;;;;;;7.72;6.95;;;15.40;61.90;;;;;;4896783;29;20220;-35
2022/09/11 09:30:00;;;;;;;7.75;7.05;;;15.40;61.90;;;;;;4897047;29;20256;-37
2022/09/11 09:32:37;;;;;;;7.65;6.80;;;15.40;61.90;;;;;;4896668;29;20682;-36
2022/09/11 09:35:16;;;;;;;8.07;6.63;;;15.40;61.90;;;;;;4896323;29;20205;-35
2022/09/11 09:37:48;;;;;;;7.90;7.10;;;15.40;61.80;;;;;;4895523;29;20217;-35
2022/09/11 09:40:20;;;;;;;8.02;7.05;;;15.40;61.70;;;;;;4877506;29;20205;-35
2022/09/11 09:43:18;;;;;;;7.20;6.38;;;15.40;61.70;;;;;;4873996;29;20198;-35
2022/09/11 09:46:22;;;;;;;7.45;6.75;;;15.40;61.60;;;;;;4878263;29;20245;-39
2022/09/11 09:48:54;;;;;;;7.47;6.68;;;15.40;61.60;;;;;;4856978;29;20766;-35
2022/09/11 09:51:25;;;;;;;9.40;6.80;;;15.30;61.60;;;;;;4876000;29;20693;-36
2022/09/11 09:54:01;;;;;;;7.28;6.57;;;15.30;61.60;;;;;;4878921;29;20209;-35
2022/09/11 09:56:34;;;;;;;7.00;6.30;;;15.30;61.70;;;;;;4878310;29;20221;-35
2022/09/11 09:59:14;;;;;;;7.22;6.45;;;15.30;61.70;;;;;;4877804;29;20205;-36
2022/09/11 10:01:50;;;;;;;6.97;6.28;;;15.30;61.70;;;;;;4878137;29;20208;-43
2022/09/11 10:04:23;;;;;;;6.72;6.03;;;15.30;61.70;;;;;;4877343;29;20316;-39
2022/09/11 10:06:55;;;;;;;7.30;6.00;;;15.30;61.70;;;;;;4878689;29;20218;-40
2022/09/11 10:09:30;;;;;;;7.30;6.32;;;15.30;61.60;;;;;;4877956;29;20222;-41
2022/09/11 10:12:04;;;;;;;6.32;5.63;;;15.30;61.60;;;;;;4878425;29;20205;-36
2022/09/11 10:14:46;;;;;;;6.45;5.85;;;15.30;61.50;;;;;;4877576;29;20201;-37
2022/09/11 10:17:24;;;;;;;7.10;6.40;;;15.30;61.60;;;;;;4878367;29;20217;-41
2022/09/11 10:19:57;;;;;;;6.68;5.65;;;15.30;61.40;;;;;;4878521;29;20209;-36
2022/09/11 10:22:32;;;;;;;7.18;6.15;;;15.30;61.40;;;;;;4877693;29;20233;-39
2022/09/11 10:25:14;;;;;;;6.82;6.15;;;15.20;61.40;;;;;;4876570;29;20228;-36
2022/09/11 10:27:56;;;;;;;6.20;5.55;;;15.20;61.40;;;;;;4877026;29;20225;-37
2022/09/11 10:30:35;;;;;;;5.88;5.30;;;15.20;61.40;;;;;;4878451;29;20240;-40
2022/09/11 10:33:18;;;;;;;6.18;5.60;;;15.20;61.40;;;;;;4877245;29;20201;-38
2022/09/11 10:35:54;;;;;;;6.22;5.63;;;15.20;61.40;;;;;;4877623;29;20228;-35
2022/09/11 10:38:29;;;;;;;6.22;5.47;;;15.20;61.30;;;;;;4876654;29;20229;-36
2022/09/11 10:41:09;;;;;;;5.43;4.93;;;15.20;61.30;;;;;;4877708;29;20684;-35
2022/09/11 10:43:49;;;;;;;5.93;5.38;;;15.20;61.30;;;;;;4877096;29;20228;-41
2022/09/11 10:46:33;;;;;;;6.20;5.60;;;15.20;62.00;;;;;;4877622;29;20313;-35
2022/09/11 10:49:17;;;;;;;6.20;5.60;;;15.20;61.10;;;;;;4876758;29;20232;-35
2022/09/11 10:52:02;;;;;;;6.13;5.63;;;15.10;61.10;;;;;;4876297;29;20597;-35
2022/09/11 10:54:45;;;;;;;5.82;5.22;;;15.10;61.10;;;;;;4877011;29;20214;-37
2022/09/11 10:57:23;;;;;;;5.95;5.35;;;15.10;61.10;;;;;;4876783;29;20209;-35
2022/09/11 11:00:09;;;;;;;5.63;5.03;;;15.10;61.10;;;;;;4877230;29;20742;-36
2022/09/11 11:02:44;;;;;;;6.32;5.68;;;15.10;61.20;;;;;;4877073;29;20198;-36
2022/09/11 11:05:23;;;;;;;6.15;5.07;;;15.10;61.20;;;;;;4876819;29;20232;-36
2022/09/11 11:08:25;;;;;;;5.68;5.18;;;15.10;61.20;;;;;;4877702;29;20606;-35
2022/09/11 11:11:13;;;;;;;6.05;5.50;;;15.10;61.20;;;;;;4859076;29;20209;-38
2022/09/11 11:13:59;;;;;;;5.28;4.78;;;15.10;61.10;;;;;;4858867;29;20239;-35
2022/09/11 11:16:41;;;;;;;5.20;4.70;;;15.10;61.00;;;;;;4857903;29;20233;-35
2022/09/11 11:19:34;;;;;;;5.63;5.10;;;15.10;61.00;;;;;;4857877;29;20229;-35
2022/09/11 11:22:17;;;;;;;5.35;4.85;;;15.10;61.00;;;;;;4872232;29;20197;-37
2022/09/11 11:25:05;;;;;;;5.10;4.60;;;15.10;61.00;;;;;;4883790;29;20235;-35
2022/09/11 11:27:56;;;;;;;5.20;4.70;;;15.10;61.00;;;;;;4894293;29;20221;-35
2022/09/11 11:30:35;;;;;;;5.57;4.90;;;15.10;61.10;;;;;;4877384;29;20229;-36
2022/09/11 11:33:23;;;;;;;5.57;5.00;;;15.00;61.00;;;;;;4874556;29;20201;-36
2022/09/11 11:36:04;;;;;;;5.65;5.05;;;15.00;61.00;;;;;;4872224;29;20690;-35
2022/09/11 11:38:42;;;;;;;5.25;4.75;;;15.00;61.00;;;;;;4872608;29;20204;-35
2022/09/11 11:41:17;;;;;;;6.18;5.20;;;15.00;61.00;;;;;;4871651;29;20611;-35
2022/09/11 11:43:51;;;;;;;5.15;4.63;;;15.10;61.00;;;;;;4874311;29;20308;-35
2022/09/11 11:46:28;;;;;;;4.95;4.45;;;15.10;60.90;;;;;;4874391;29;20214;-35
2022/09/11 11:49:03;;;;;;;5.30;4.80;;;15.10;60.90;;;;;;4873057;29;20194;-35
2022/09/11 11:51:41;;;;;;;5.03;4.53;;;15.10;60.80;;;;;;4874443;29;20185;-35
2022/09/11 11:54:19;;;;;;;5.00;4.50;;;15.10;60.90;;;;;;4874216;29;20217;-35
2022/09/11 11:56:53;;;;;;;5.15;4.65;;;15.10;60.90;;;;;;4874284;29;20221;-34
2022/09/11 11:59:32;;;;;;;5.45;4.88;;;15.10;60.90;;;;;;4874453;29;20200;-35
2022/09/11 12:02:15;;;;;;;4.72;4.22;;;15.00;60.80;;;;;;4875436;29;20209;-36
2022/09/11 12:04:52;;;;;;;4.93;4.43;;;15.00;61.60;;;;;;4875352;29;20229;-35
2022/09/11 12:07:26;;;;;;;4.47;4.07;;;15.00;60.90;;;;;;4875149;29;20217;-35
2022/09/11 12:09:59;;;;;;;5.28;4.78;;;15.00;60.90;;;;;;4883335;29;20603;-35
2022/09/11 12:12:32;;;;;;;4.72;4.32;;;15.00;60.90;;;;;;4891257;29;20755;-36
2022/09/11 12:15:07;;;;;;;4.72;4.32;;;15.00;60.80;;;;;;4874837;29;20289;-39
2022/09/11 12:17:40;;;;;;;4.53;4.05;;;15.00;60.80;;;;;;4874757;29;20225;-36
2022/09/11 12:20:34;;;;;;;4.90;4.35;;;15.10;60.80;;;;;;4874925;29;20205;-35
2022/09/11 12:23:07;;;;;;;4.65;4.20;;;15.00;60.60;;;;;;4875154;29;20217;-36
2022/09/11 12:26:06;;;;;;;4.63;3.92;;;15.10;60.70;;;;;;4886961;29;20236;-35
2022/09/11 12:28:36;;;;;;;4.85;4.35;;;15.00;60.60;;;;;;4893368;29;20201;-41
2022/09/11 12:31:10;;;;;;;5.10;4.60;;;15.00;60.60;;;;;;4893613;29;20232;-36
2022/09/11 12:33:58;;;;;;;4.18;3.75;;;15.00;60.60;;;;;;4893582;29;20224;-41
2022/09/11 12:36:48;;;;;;;4.85;4.35;;;15.00;60.70;;;;;;4894044;29;20697;-35
2022/09/11 12:39:31;;;;;;;4.57;4.18;;;15.00;60.70;;;;;;4884724;29;20206;-43
2022/09/11 12:42:38;;;;;;;4.88;4.38;;;15.00;60.70;;;;;;4894349;29;20589;-41
2022/09/11 12:45:37;;;;;;;4.22;3.90;;;15.00;60.70;;;;;;4871453;29;20225;-39
2022/09/11 12:48:14;;;;;;;4.25;3.83;;;15.00;60.70;;;;;;4894588;29;20272;-36
2022/09/11 12:50:52;;;;;;;4.20;3.80;;;15.00;60.50;;;;;;4897605;29;20201;-35
2022/09/11 12:53:27;;;;;;;4.63;4.13;;;15.00;60.50;;;;;;4897327;29;20197;-42
2022/09/11 12:56:04;;;;;;;4.50;3.90;;;15.00;60.50;;;;;;4896729;29;20228;-36
2022/09/11 12:58:39;;;;;;;4.28;3.88;;;15.00;60.50;;;;;;4896628;29;20207;-37
2022/09/11 13:01:19;;;;;;;3.85;3.53;;;15.00;60.50;;;;;;4896989;29;20196;-35
2022/09/11 13:03:59;;;;;;;4.28;3.88;;;15.00;60.50;;;;;;4896942;29;20708;-35
2022/09/11 13:06:44;;;;;;;3.63;3.33;;;15.00;60.50;;;;;;4897008;29;20224;-35
2022/09/11 13:09:23;;;;;;;3.83;3.42;;;15.00;60.50;;;;;;4886984;29;20209;-36
2022/09/11 13:11:55;;;;;;;4.30;3.90;;;15.00;60.60;;;;;;4859328;29;20209;-35
2022/09/11 13:14:52;;;;;;;4.40;4.00;;;15.00;60.60;;;;;;4859695;29;20202;-35
2022/09/11 13:17:29;;;;;;;3.88;3.58;;;14.90;60.50;;;;;;4859610;29;20570;-35
2022/09/11 13:20:20;;;;;;;3.88;3.47;;;14.90;60.40;;;;;;4859722;29;20542;-36
2022/09/11 13:22:53;;;;;;;3.83;3.53;;;15.00;60.40;;;;;;4859222;29;20206;-35
2022/09/11 13:25:25;;;;;;;3.45;3.15;;;15.00;61.10;;;;;;4874550;29;20225;-35
2022/09/11 13:27:58;;;;;;;3.80;3.50;;;15.00;60.30;;;;;;4896568;29;20292;-35